createdAt,value
2022-07-31T00:00:51.995Z,6.95
2022-07-31T00:03:20.125Z,6.95
2022-07-31T00:05:48.140Z,7.25
2022-07-31T00:08:16.110Z,7.30
2022-07-31T00:10:44.128Z,8.85
2022-07-31T00:13:13.662Z,8.82
2022-07-31T00:15:42.197Z,8.88
2022-07-31T00:18:10.267Z,9.30
2022-07-31T00:20:38.376Z,9.35
2022-07-31T00:23:06.656Z,8.23
2022-07-31T00:25:34.936Z,8.00
2022-07-31T00:28:03.244Z,9.68
2022-07-31T00:30:32.809Z,8.52
2022-07-31T00:33:00.800Z,8.88
2022-07-31T00:35:28.938Z,9.23
2022-07-31T00:38:24.709Z,8.35
2022-07-31T00:40:49.121Z,8.32
2022-07-31T00:43:19.082Z,8.32
2022-07-31T00:45:58.462Z,8.38
2022-07-31T00:50:56.643Z,6.82
2022-07-31T00:53:25.829Z,6.47
2022-07-31T00:55:54.052Z,6.43
2022-07-31T00:58:22.134Z,6.10
2022-07-31T01:00:52.696Z,9.73
2022-07-31T01:03:20.882Z,7.50
2022-07-31T01:05:49.240Z,6.28
2022-07-31T01:08:17.414Z,5.60
2022-07-31T01:10:52.258Z,5.88
2022-07-31T01:13:29.508Z,7.50
2022-07-31T01:16:02.729Z,6.63
2022-07-31T01:18:34.765Z,6.00
2022-07-31T01:21:07.165Z,5.97
2022-07-31T01:24:13.761Z,7.97
2022-07-31T01:27:26.955Z,6.00
2022-07-31T01:30:00.448Z,6.72
2022-07-31T01:32:32.270Z,6.47
2022-07-31T01:35:06.500Z,6.45
2022-07-31T01:37:38.424Z,5.97
2022-07-31T01:40:11.197Z,6.18
2022-07-31T01:42:42.155Z,6.65
2022-07-31T01:45:14.816Z,5.97
2022-07-31T01:47:44.733Z,6.63
2022-07-31T01:50:43.333Z,6.30
2022-07-31T01:53:03.372Z,8.35
2022-07-31T01:56:02.563Z,7.22
2022-07-31T01:58:23.702Z,6.57
2022-07-31T02:00:55.183Z,6.20
2022-07-31T02:03:44.373Z,6.55
2022-07-31T02:06:17.411Z,8.80
2022-07-31T02:08:47.279Z,7.20
2022-07-31T02:11:19.430Z,6.47
2022-07-31T02:13:49.534Z,7.43
2022-07-31T02:16:20.722Z,6.95
2022-07-31T02:18:55.315Z,6.78
2022-07-31T02:21:25.857Z,8.38
2022-07-31T02:23:54.791Z,7.88
2022-07-31T02:26:23.941Z,8.52
2022-07-31T02:28:53.045Z,8.50
2022-07-31T02:31:24.552Z,8.85
2022-07-31T02:33:54.109Z,8.98
2022-07-31T02:36:23.348Z,7.43
2022-07-31T02:38:53.263Z,8.60
2022-07-31T02:41:22.779Z,8.82
2022-07-31T02:43:51.914Z,9.73
2022-07-31T02:46:24.445Z,8.55
2022-07-31T02:48:54.296Z,9.10
2022-07-31T02:51:25.308Z,7.90
2022-07-31T02:53:55.882Z,7.93
2022-07-31T02:56:27.275Z,8.32
2022-07-31T02:58:55.804Z,9.52
2022-07-31T03:01:29.904Z,8.50
2022-07-31T03:03:58.169Z,11.00
2022-07-31T03:06:29.443Z,7.25
2022-07-31T03:08:57.864Z,7.90
2022-07-31T03:11:27.235Z,7.78
2022-07-31T03:13:58.256Z,8.00
2022-07-31T03:16:27.896Z,8.10
2022-07-31T03:18:58.628Z,8.43
2022-07-31T03:21:27.246Z,8.57
2022-07-31T03:23:56.222Z,8.98
2022-07-31T03:26:24.857Z,9.80
2022-07-31T03:28:53.011Z,9.93
2022-07-31T03:31:21.283Z,10.00
2022-07-31T03:33:49.411Z,9.88
2022-07-31T03:36:19.449Z,8.35
2022-07-31T03:38:50.465Z,8.70
2022-07-31T03:41:42.162Z,8.70
2022-07-31T03:44:11.589Z,8.90
2022-07-31T03:46:40.046Z,9.03
2022-07-31T03:49:09.208Z,9.77
2022-07-31T03:51:38.959Z,8.85
2022-07-31T03:54:07.250Z,9.88
2022-07-31T03:57:02.022Z,9.98
2022-07-31T03:59:34.812Z,12.63
2022-07-31T04:02:11.444Z,11.02
2022-07-31T04:04:47.420Z,12.73
2022-07-31T04:07:17.322Z,12.15
2022-07-31T04:09:45.717Z,11.63
2022-07-31T04:12:18.162Z,10.70
